createdAt,value
2023-05-20T00:01:06.630Z,12.82
2023-05-20T00:05:58.503Z,11.60
2023-05-20T00:10:50.334Z,8.25
2023-05-20T00:15:42.155Z,9.50
2023-05-20T00:20:36.876Z,12.00
2023-05-20T00:25:28.810Z,14.70
2023-05-20T00:30:20.843Z,14.63
2023-05-20T00:35:13.356Z,10.93
2023-05-20T00:40:05.989Z,14.90
2023-05-20T00:44:57.896Z,11.20
2023-05-20T00:49:51.769Z,13.77
2023-05-20T00:54:44.337Z,11.50
2023-05-20T00:59:37.519Z,12.55
2023-05-20T01:04:30.032Z,11.25
2023-05-20T01:09:22.034Z,13.68
2023-05-20T01:14:16.908Z,11.90
2023-05-20T01:19:22.212Z,14.68
2023-05-20T01:24:14.143Z,12.60
2023-05-20T01:29:06.195Z,13.15
2023-05-20T01:33:58.912Z,13.43
2023-05-20T01:38:51.554Z,11.00
2023-05-20T01:43:44.186Z,11.88
2023-05-20T01:48:36.166Z,13.77
2023-05-20T01:53:28.174Z,10.73
2023-05-20T01:58:19.983Z,11.63
2023-05-20T02:03:11.919Z,12.07
2023-05-20T02:08:04.173Z,14.48
2023-05-20T02:12:56.033Z,12.82
2023-05-20T02:17:49.666Z,11.05
2023-05-20T02:22:41.593Z,10.18
2023-05-20T02:27:35.580Z,10.55
2023-05-20T02:32:29.075Z,10.43
2023-05-20T02:37:21.128Z,11.20
2023-05-20T02:42:13.445Z,12.95
2023-05-20T02:47:05.461Z,10.93
2023-05-20T02:51:57.281Z,12.15
2023-05-20T02:56:49.188Z,11.73
2023-05-20T03:01:41.365Z,11.00
2023-05-20T03:06:34.390Z,13.25
2023-05-20T03:11:26.513Z,14.43
2023-05-20T03:16:19.030Z,11.68
2023-05-20T03:21:11.041Z,11.75
2023-05-20T03:26:03.532Z,15.02
2023-05-20T03:30:55.388Z,12.32
2023-05-20T03:35:47.254Z,17.73
2023-05-20T03:40:40.968Z,12.68
2023-05-20T03:45:34.867Z,13.00
2023-05-20T03:50:32.000Z,14.15
2023-05-20T03:55:25.227Z,13.32
2023-05-20T04:00:18.897Z,13.60
2023-05-20T04:05:11.034Z,13.15
2023-05-20T04:10:04.710Z,15.98
2023-05-20T04:15:01.581Z,15.40
2023-05-20T04:19:58.568Z,14.38
2023-05-20T04:24:50.720Z,15.55
2023-05-20T04:29:46.183Z,20.40
2023-05-20T04:34:39.246Z,17.40
2023-05-20T04:39:31.471Z,14.45
2023-05-20T04:44:24.978Z,17.83
2023-05-20T04:49:17.302Z,16.98
2023-05-20T04:54:09.302Z,16.13
2023-05-20T04:59:01.159Z,19.15
2023-05-20T05:03:53.280Z,18.95
2023-05-20T05:08:46.313Z,18.17
2023-05-20T05:13:38.514Z,18.80
2023-05-20T05:18:31.321Z,18.27
2023-05-20T05:23:23.798Z,18.80
2023-05-20T05:28:16.130Z,18.73
2023-05-20T05:33:08.266Z,18.33
2023-05-20T05:38:00.574Z,20.05
2023-05-20T05:42:52.767Z,21.48
2023-05-20T05:47:44.862Z,25.33
2023-05-20T05:52:37.350Z,21.02
2023-05-20T05:57:32.733Z,23.42
2023-05-20T06:02:26.832Z,20.40
2023-05-20T06:07:19.520Z,22.92
2023-05-20T06:12:13.864Z,23.13
2023-05-20T06:17:06.178Z,21.05
2023-05-20T06:21:59.115Z,22.00
2023-05-20T06:26:51.428Z,22.70
2023-05-20T06:31:43.377Z,28.73
2023-05-20T06:36:35.271Z,24.58
2023-05-20T06:41:28.003Z,22.30
2023-05-20T06:46:19.953Z,23.20
2023-05-20T06:51:20.384Z,24.10
2023-05-20T06:56:14.186Z,28.75
2023-05-20T07:01:06.142Z,21.67
2023-05-20T07:05:59.304Z,21.35
2023-05-20T07:10:51.758Z,24.02
2023-05-20T07:15:49.477Z,27.88
2023-05-20T07:20:42.049Z,25.48
2023-05-20T07:25:41.243Z,25.25
2023-05-20T07:30:33.395Z,24.02
2023-05-20T07:35:43.017Z,27.65
2023-05-20T07:40:37.017Z,27.33
2023-05-20T07:45:29.159Z,27.55
2023-05-20T07:50:21.374Z,26.27
2023-05-20T07:55:13.301Z,28.52
2023-05-20T08:00:06.501Z,28.65
2023-05-20T08:05:09.091Z,26.02
2023-05-20T08:10:01.432Z,31.80
2023-05-20T08:14:54.450Z,26.35
2023-05-20T08:19:46.640Z,25.15
2023-05-20T08:24:39.493Z,32.00
2023-05-20T08:29:31.467Z,27.83
2023-05-20T08:34:25.588Z,26.48
2023-05-20T08:39:17.904Z,26.13
2023-05-20T08:44:13.778Z,25.75
2023-05-20T08:49:07.899Z,30.50
2023-05-20T08:54:00.294Z,26.58
2023-05-20T08:58:52.369Z,28.90
2023-05-20T09:03:44.769Z,25.13
2023-05-20T09:08:37.438Z,24.17
2023-05-20T09:13:32.712Z,27.17
2023-05-20T09:18:25.311Z,25.52
2023-05-20T09:23:19.753Z,27.45
2023-05-20T09:28:12.113Z,26.75
2023-05-20T09:33:06.071Z,30.02
2023-05-20T09:37:59.006Z,26.80
2023-05-20T09:42:54.972Z,28.85
2023-05-20T09:47:47.791Z,30.20
2023-05-20T09:52:40.198Z,30.42
2023-05-20T09:57:39.034Z,33.92
2023-05-20T10:02:31.412Z,33.35
2023-05-20T10:07:42.508Z,30.23
2023-05-20T10:13:26.617Z,33.15
2023-05-20T10:18:37.013Z,32.88
2023-05-20T10:23:31.393Z,28.13
2023-05-20T10:28:31.514Z,29.27
2023-05-20T10:33:23.599Z,29.90
2023-05-20T10:38:15.499Z,34.20
2023-05-20T10:43:26.808Z,27.70
2023-05-20T10:48:28.326Z,29.50
2023-05-20T10:53:32.861Z,31.00
2023-05-20T10:58:26.130Z,33.33
2023-05-20T11:03:18.920Z,32.08
2023-05-20T11:08:27.222Z,31.85
2023-05-20T11:13:20.876Z,33.85
2023-05-20T11:18:15.508Z,33.00
2023-05-20T11:23:13.639Z,32.72
2023-05-20T11:28:10.008Z,30.17
2023-05-20T11:33:04.367Z,34.33
2023-05-20T11:38:04.206Z,29.63
2023-05-20T11:42:57.654Z,32.88
2023-05-20T11:48:03.072Z,36.58
2023-05-20T11:53:03.444Z,36.38
2023-05-20T11:57:56.982Z,36.72
2023-05-20T12:02:49.114Z,37.03
2023-05-20T12:07:41.080Z,38.25
2023-05-20T12:12:33.001Z,36.47
2023-05-20T12:17:24.829Z,32.97
2023-05-20T12:22:16.753Z,29.63
2023-05-20T12:27:08.649Z,34.05
2023-05-20T12:32:01.258Z,33.92
2023-05-20T12:36:53.162Z,34.72
2023-05-20T12:41:45.200Z,39.72
2023-05-20T12:46:38.161Z,35.17
2023-05-20T12:51:30.251Z,32.78
2023-05-20T12:56:22.458Z,33.47
2023-05-20T13:01:14.466Z,33.85
2023-05-20T13:06:06.618Z,38.13
2023-05-20T13:10:58.441Z,37.42
2023-05-20T13:15:51.298Z,36.58
2023-05-20T13:20:46.687Z,40.42
2023-05-20T13:25:38.805Z,45.65
2023-05-20T13:30:30.695Z,47.13
2023-05-20T13:35:22.744Z,47.33
2023-05-20T13:40:14.656Z,54.15
2023-05-20T13:45:07.160Z,52.15
2023-05-20T13:50:01.305Z,47.65
2023-05-20T13:54:54.641Z,55.30
2023-05-20T13:59:46.734Z,56.15
2023-05-20T14:04:40.178Z,53.83
2023-05-20T14:09:32.452Z,66.00
2023-05-20T14:14:24.374Z,53.25
2023-05-20T14:19:16.195Z,49.92
2023-05-20T14:24:08.050Z,51.28
2023-05-20T14:29:00.274Z,60.35
2023-05-20T14:33:52.209Z,58.22
2023-05-20T14:38:44.233Z,58.08
2023-05-20T14:43:37.158Z,57.80
2023-05-20T14:48:29.321Z,55.50
2023-05-20T14:53:21.367Z,51.20
2023-05-20T14:58:13.363Z,50.85
2023-05-20T15:03:05.427Z,52.25
2023-05-20T15:07:57.616Z,54.58
2023-05-20T15:12:49.570Z,53.05
2023-05-20T15:17:41.525Z,43.25
2023-05-20T15:22:33.459Z,50.88
2023-05-20T15:27:25.312Z,52.15
2023-05-20T15:32:17.755Z,46.92
2023-05-20T15:37:09.618Z,44.30
2023-05-20T15:42:03.113Z,56.63
2023-05-20T15:46:54.971Z,46.92
2023-05-20T15:51:55.807Z,58.97
2023-05-20T15:56:54.980Z,50.33
2023-05-20T16:01:46.966Z,51.90
2023-05-20T16:06:38.988Z,48.50
2023-05-20T16:11:34.848Z,50.85
2023-05-20T16:16:26.831Z,54.75
2023-05-20T16:21:19.301Z,50.35
2023-05-20T16:26:11.858Z,50.08
2023-05-20T16:31:03.965Z,49.67
2023-05-20T16:35:56.293Z,54.30
2023-05-20T16:40:48.562Z,51.47
2023-05-20T16:45:40.771Z,48.28
2023-05-20T16:50:33.145Z,43.88
2023-05-20T16:55:25.195Z,47.15
2023-05-20T17:00:17.384Z,50.35
2023-05-20T17:05:09.688Z,50.40
2023-05-20T17:10:02.060Z,58.92
2023-05-20T17:14:54.222Z,45.42
2023-05-20T17:19:46.138Z,44.88
2023-05-20T17:24:38.039Z,41.97
2023-05-20T17:29:30.389Z,47.97
2023-05-20T17:34:22.154Z,47.47
2023-05-20T17:39:14.143Z,45.22
2023-05-20T17:44:06.409Z,43.78
2023-05-20T17:48:58.237Z,41.85
2023-05-20T17:53:50.072Z,42.45
2023-05-20T17:58:41.972Z,50.25
2023-05-20T18:03:33.914Z,49.42
2023-05-20T18:08:26.016Z,45.78
2023-05-20T18:13:17.971Z,46.42
2023-05-20T18:18:09.930Z,45.38
2023-05-20T18:23:01.813Z,45.75
2023-05-20T18:27:53.734Z,37.03
2023-05-20T18:32:45.843Z,44.60
2023-05-20T18:37:37.799Z,40.10
2023-05-20T18:42:29.614Z,46.08
2023-05-20T18:47:21.561Z,44.28
2023-05-20T18:52:13.771Z,45.28
2023-05-20T18:57:06.107Z,43.20
2023-05-20T19:01:58.613Z,45.17
2023-05-20T19:06:50.525Z,40.25
2023-05-20T19:11:42.379Z,37.75
2023-05-20T19:16:34.371Z,45.33
2023-05-20T19:21:26.311Z,46.03
2023-05-20T19:26:18.332Z,46.95
2023-05-20T19:31:10.320Z,41.67
2023-05-20T19:36:02.181Z,44.03
2023-05-20T19:40:54.046Z,44.20
2023-05-20T19:45:46.160Z,48.05
2023-05-20T19:50:38.238Z,49.50
2023-05-20T19:55:30.277Z,44.20
2023-05-20T20:00:22.470Z,45.22
2023-05-20T20:05:15.084Z,49.22
2023-05-20T20:10:08.317Z,49.75
2023-05-20T20:15:00.284Z,48.53
2023-05-20T20:19:55.520Z,46.55
2023-05-20T20:24:47.665Z,48.53
2023-05-20T20:29:43.030Z,43.40
2023-05-20T20:34:34.921Z,50.67
2023-05-20T20:39:26.789Z,45.45
2023-05-20T20:44:22.781Z,51.13
2023-05-20T20:49:14.823Z,51.42
2023-05-20T20:54:08.245Z,46.47
2023-05-20T20:59:00.596Z,44.03
2023-05-20T21:03:54.821Z,52.30
2023-05-20T21:08:46.942Z,50.88
2023-05-20T21:13:39.926Z,52.35
2023-05-20T21:18:31.800Z,52.17
2023-05-20T21:23:23.981Z,50.28
2023-05-20T21:28:16.482Z,51.80
2023-05-20T21:33:08.392Z,50.88
2023-05-20T21:38:00.210Z,50.90
2023-05-20T21:42:52.462Z,52.13
2023-05-20T21:47:46.414Z,54.63
2023-05-20T21:52:40.045Z,48.55
2023-05-20T21:57:31.875Z,53.13
2023-05-20T22:02:23.783Z,63.63
2023-05-20T22:07:15.775Z,51.72
2023-05-20T22:12:08.098Z,60.63
2023-05-20T22:16:59.969Z,56.83
2023-05-20T22:21:51.814Z,55.25
2023-05-20T22:26:43.705Z,58.28
2023-05-20T22:31:35.684Z,58.90
2023-05-20T22:36:28.270Z,59.20
2023-05-20T22:41:20.118Z,59.47
2023-05-20T22:46:12.164Z,57.38
2023-05-20T22:51:04.270Z,64.68
2023-05-20T22:55:56.655Z,57.20
2023-05-20T23:00:48.478Z,57.75
2023-05-20T23:05:40.309Z,54.58
2023-05-20T23:10:32.191Z,56.25
2023-05-20T23:15:27.961Z,59.00
2023-05-20T23:20:19.800Z,57.17
2023-05-20T23:25:11.736Z,56.78
2023-05-20T23:30:03.866Z,54.25
2023-05-20T23:34:55.807Z,48.90
2023-05-20T23:39:48.252Z,49.40
2023-05-20T23:44:40.090Z,54.78
2023-05-20T23:49:32.263Z,56.13
2023-05-20T23:54:24.059Z,53.15
2023-05-20T23:59:16.122Z,54.85
